03:13 Rennrad Moetz - Soelden - Stams - Moetz
Ort Moetz Datum 16.06.2017 14:40:25
Kategorie Rennrad
Distanz 101,39 Kilometer Steigung 859,0 Meter Gefälle -859,0 Meter
Gesamt Zeit 03:31:47 Aktiv 03:16:07 Pause 00:15:40
Durchs. Tempo 31,6 km/h Tempo max. 64,8 km/h Tempo min. 4,3 km/h
Kalorien 0 Durchs. HF 131 BPM HF max. 165 BPM
Wetter 22 °C Overcast Min/Max: 20,0 °C/24,6 °C; Druck: 1019,5 mbar; Rel. Feuchte: 48,7%; Taupunkt: 12,0 °C; Windgeschwindigkeit: 2,2 km/h; Niederschlag: 0,0mm
Ausrüstung Bontrager - RXL Road
Scott - Addict 20
Notiz Moetz - Soelden - Stams - Moetz ... trocken, feines Radlwetter, starker Rückenwind im Ötztal Richtung Sölden - Ötztal hinein mit Tempo, Rest recht locker ... garmin connect
Splits
Distanz (km) Gesamt Zeit Split Zeit Split Tempo Split Tempo Höhenprofil (m)
1,00 00:02:12 00:02:12 00:02:12 27,3 -10,01
2,00 00:04:11 00:01:59 00:02:00 30,1 2,13
3,00 00:06:05 00:01:54 00:01:54 31,6 7,87
4,00 00:08:00 00:01:54 00:01:55 31,4 9,33
5,00 00:10:00 00:01:59 00:02:00 30,0 5,53
6,00 00:11:54 00:01:54 00:01:55 31,4 5,83
7,00 00:13:50 00:01:55 00:01:56 31,1 1,28
8,00 00:15:47 00:01:56 00:01:57 30,9 7,20
9,00 00:17:42 00:01:55 00:01:55 31,3 3,35
10,00 00:19:49 00:02:06 00:02:07 28,4 17,47
11,00 00:22:46 00:02:57 00:02:57 20,3 24,71
12,00 00:24:36 00:01:50 00:01:50 32,6 4,16
13,00 00:26:43 00:02:06 00:02:07 28,4 28,53
14,00 00:28:25 00:01:42 00:01:42 35,2 -8,02
15,00 00:30:08 00:01:43 00:01:43 34,9 13,27
16,00 00:32:01 00:01:52 00:01:53 32,0 15,69
17,00 00:34:30 00:02:28 00:02:29 24,2 29,55
18,00 00:37:12 00:02:42 00:02:43 22,1 35,07
19,00 00:40:18 00:03:05 00:03:05 19,4 51,69
20,00 00:43:01 00:02:43 00:02:43 22,0 29,96
21,00 00:44:43 00:01:42 00:01:43 35,1 9,00
22,00 00:46:25 00:01:41 00:01:42 35,5 4,48
23,00 00:48:17 00:01:51 00:01:52 32,1 17,21
24,00 00:51:04 00:02:47 00:02:47 21,5 39,76
25,00 00:54:07 00:03:02 00:03:03 19,7 52,50
26,00 00:55:40 00:01:33 00:01:34 38,5 -16,05
27,00 00:57:32 00:01:51 00:01:51 32,3 15,47
28,00 01:00:40 00:03:08 00:03:09 19,1 49,90
29,00 01:03:44 00:03:04 00:03:04 19,6 33,37
30,00 01:05:50 00:02:05 00:02:06 28,6 17,56
31,00 01:07:33 00:01:43 00:01:43 34,9 7,99
32,00 01:09:12 00:01:38 00:01:38 36,6 8,54
33,00 01:10:55 00:01:43 00:01:43 34,8 7,39
34,00 01:12:56 00:02:01 00:02:01 29,8 6,27
35,00 01:14:25 00:01:28 00:01:29 40,5 -2,96
36,00 01:16:00 00:01:35 00:01:35 37,8 11,44
37,00 01:17:36 00:01:35 00:01:36 37,5 2,21
38,00 01:19:27 00:01:50 00:01:51 32,4 14,43
39,00 01:21:27 00:01:59 00:02:00 30,0 10,23
40,00 01:23:19 00:01:51 00:01:52 32,2 10,99
41,00 01:25:29 00:02:10 00:02:10 27,6 20,85
42,00 01:27:51 00:02:22 00:02:22 25,3 38,66
43,00 01:30:53 00:03:02 00:03:02 19,8 54,03
44,00 01:32:22 00:01:28 00:01:29 40,5 34,30
45,00 01:33:33 00:01:10 00:01:11 50,9 -8,52
46,00 01:35:11 00:01:37 00:01:38 36,8 -16,71
47,00 01:36:45 00:01:33 00:01:34 38,3 -2,82
48,00 01:38:26 00:01:41 00:01:42 35,4 10,30
49,00 01:40:57 00:02:30 00:02:31 23,8 27,21
50,00 01:48:12 00:07:14 00:07:14 8,3 4,05
51,00 01:50:12 00:02:00 00:02:01 29,8 -28,93
52,00 01:52:04 00:01:51 00:01:51 32,3 -11,56
53,00 01:53:48 00:01:44 00:01:44 34,5 2,17
54,00 01:55:41 00:01:52 00:01:53 32,0 12,29
55,00 01:57:19 00:01:38 00:01:38 36,6 -26,06
56,00 01:58:48 00:01:28 00:01:28 40,7 -25,13
57,00 01:59:52 00:01:04 00:01:04 56,0 -48,73
58,00 02:01:24 00:01:31 00:01:32 39,3 -28,34
59,00 02:02:58 00:01:34 00:01:35 38,1 -16,58
60,00 02:04:45 00:01:46 00:01:46 33,9 -4,62
61,00 02:06:25 00:01:40 00:01:41 35,7 -16,81
62,00 02:08:19 00:01:53 00:01:53 31,8 -5,76
63,00 02:10:11 00:01:52 00:01:52 32,0 -8,70
64,00 02:12:00 00:01:48 00:01:49 33,1 -4,92
65,00 02:14:09 00:02:09 00:02:09 27,9 6,12
66,00 02:15:57 00:01:47 00:01:48 33,3 -14,19
67,00 02:17:58 00:02:01 00:02:01 29,7 -4,96
68,00 02:19:54 00:01:55 00:01:56 31,2 -10,67
69,00 02:22:01 00:02:07 00:02:08 28,2 -8,26
70,00 02:23:36 00:01:35 00:01:35 37,9 -23,88
71,00 02:24:48 00:01:11 00:01:12 50,2 -51,49
72,00 02:25:56 00:01:08 00:01:08 52,9 -30,03
73,00 02:28:02 00:02:05 00:02:06 28,7 7,99
74,00 02:30:03 00:02:00 00:02:01 29,8 -25,21
75,00 02:31:19 00:01:16 00:01:16 47,1 -43,24
76,00 02:32:45 00:01:26 00:01:26 41,9 -32,01
77,00 02:34:40 00:01:54 00:01:55 31,4 -9,33
78,00 02:36:25 00:01:45 00:01:46 34,0 -5,43
79,00 02:38:11 00:01:45 00:01:45 34,2 -6,80
80,00 02:39:34 00:01:23 00:01:23 43,3 -59,46
81,00 02:40:58 00:01:23 00:01:24 42,9 -32,23
82,00 02:42:15 00:01:17 00:01:18 46,5 -38,42
83,00 02:43:54 00:01:38 00:01:39 36,5 -23,14
84,00 02:45:33 00:01:39 00:01:39 36,3 -10,08
85,00 02:47:17 00:01:43 00:01:43 34,8 -12,06
86,00 02:49:00 00:01:43 00:01:43 34,9 -5,22
87,00 02:50:40 00:01:40 00:01:40 35,9 -15,58
88,00 02:52:23 00:01:42 00:01:43 35,1 -11,24
89,00 02:53:39 00:01:16 00:01:16 47,2 -25,77
90,00 02:55:15 00:01:36 00:01:37 37,3 -9,11
91,00 02:56:55 00:01:39 00:01:39 36,3 -6,37
92,00 02:58:19 00:01:24 00:01:24 42,8 -2,92
93,00 02:59:44 00:01:25 00:01:25 42,2 -3,75
94,00 03:01:21 00:01:37 00:01:38 36,9 -5,91
95,00 03:02:47 00:01:25 00:01:26 42,1 -8,46
96,00 03:04:27 00:01:39 00:01:39 36,2 -7,73
97,00 03:06:05 00:01:38 00:01:39 36,4 -4,90
98,00 03:07:44 00:01:38 00:01:39 36,5 0,04
99,00 03:09:19 00:01:34 00:01:35 38,0 -0,22
100,00 03:11:17 00:01:58 00:01:58 30,4 0,21
101,00 03:13:16 00:01:59 00:01:59 30,1 0,15
102,00 03:15:14 00:01:57 00:01:57 30,7 5,49
102,36 03:16:07 00:00:52 00:02:27 24,5 4,15